Time;durP1;ratioP1;P1;durP2;ratioP2;P2;SDS_P1;SDS_P2;PMS_P1;PMS_P2;Temp;Humidity;BMP_temperature;BMP_pressure;BME280_temperature;BME280_humidity;BME280_pressure;Samples;Min_cycle;Max_cycle;Signal;HPM_P1;HPM_P2
2021/04/09 00:00:06;;;;;;;42.88;31.30;;;21.30;48.50;;;;;;338614;29;1187;-57
2021/04/09 00:00:24;;;;;;;41.58;30.67;;;21.30;48.70;;;;;;339034;29;1496;-57
2021/04/09 00:00:36;;;;;;;40.60;30.38;;;21.30;48.80;;;;;;338635;29;1381;-57
2021/04/09 00:00:47;;;;;;;40.55;30.40;;;21.20;48.70;;;;;;338466;29;1294;-57
2021/04/09 00:00:58;;;;;;;41.63;31.10;;;21.30;48.80;;;;;;338550;29;1155;-57
2021/04/09 00:01:10;;;;;;;42.13;31.85;;;21.30;48.70;;;;;;337337;29;979;-59
2021/04/09 00:01:21;;;;;;;40.50;30.92;;;21.30;48.60;;;;;;338615;29;1103;-57
2021/04/09 00:01:38;;;;;;;40.58;31.08;;;21.30;48.60;;;;;;338601;29;868;-57
2021/04/09 00:01:52;;;;;;;39.58;30.45;;;21.30;48.60;;;;;;338551;29;802;-57
2021/04/09 00:02:07;;;;;;;39.97;30.33;;;21.30;48.70;;;;;;338583;29;1314;-57
2021/04/09 00:02:19;;;;;;;40.53;30.55;;;21.20;48.70;;;;;;338580;29;1568;-57
2021/04/09 00:02:31;;;;;;;41.47;31.33;;;21.20;48.60;;;;;;339916;29;845;-57
2021/04/09 00:02:43;;;;;;;41.17;31.50;;;21.30;48.60;;;;;;340022;29;680;-57
2021/04/09 00:02:56;;;;;;;39.30;30.90;;;21.20;48.60;;;;;;338947;29;1437;-59
2021/04/09 00:03:09;;;;;;;37.20;29.48;;;21.30;48.80;;;;;;339672;29;1190;-57
2021/04/09 00:03:20;;;;;;;36.90;28.48;;;21.20;48.70;;;;;;335897;29;2359;-59
2021/04/09 00:03:33;;;;;;;38.08;28.60;;;21.30;48.70;;;;;;335859;29;1248;-58
2021/04/09 00:03:44;;;;;;;38.55;28.95;;;21.30;48.70;;;;;;335947;29;1565;-57
2021/04/09 00:03:59;;;;;;;39.47;30.25;;;21.20;48.90;;;;;;337015;29;1752;-57
2021/04/09 00:04:14;;;;;;;37.72;30.02;;;21.30;48.90;;;;;;337374;29;782;-57
2021/04/09 00:04:26;;;;;;;38.53;30.70;;;21.20;48.70;;;;;;336050;29;776;-57
2021/04/09 00:04:38;;;;;;;39.58;30.88;;;21.30;48.70;;;;;;337714;29;1550;-59
2021/04/09 00:04:49;;;;;;;39.45;30.45;;;21.30;48.60;;;;;;338605;29;779;-57
2021/04/09 00:05:05;;;;;;;38.38;29.17;;;21.30;48.60;;;;;;338460;29;1174;-58
2021/04/09 00:05:19;;;;;;;39.30;29.80;;;21.30;48.60;;;;;;337403;29;816;-57
2021/04/09 00:05:31;;;;;;;40.00;30.67;;;21.20;48.70;;;;;;339834;29;1535;-57
2021/04/09 00:05:42;;;;;;;39.25;29.83;;;21.30;48.70;;;;;;339848;29;1070;-57
2021/04/09 00:05:53;;;;;;;39.00;29.45;;;21.20;48.60;;;;;;339821;29;1306;-58
2021/04/09 00:06:05;;;;;;;38.90;30.08;;;21.20;48.60;;;;;;339724;29;1311;-58
2021/04/09 00:06:16;;;;;;;40.15;30.70;;;21.30;48.60;;;;;;339718;29;1324;-65
2021/04/09 00:06:27;;;;;;;41.33;30.80;;;21.30;48.60;;;;;;339850;29;1145;-59
2021/04/09 00:06:39;;;;;;;40.58;30.58;;;21.30;48.60;;;;;;339299;29;1784;-57
2021/04/09 00:06:51;;;;;;;39.20;30.40;;;21.20;48.60;;;;;;339893;29;1161;-58
2021/04/09 00:07:03;;;;;;;38.67;30.10;;;21.20;48.60;;;;;;339878;29;1696;-57
2021/04/09 00:07:15;;;;;;;37.80;29.38;;;21.20;48.70;;;;;;340342;29;1907;-57
2021/04/09 00:07:26;;;;;;;37.28;29.35;;;21.30;48.50;;;;;;339936;29;1374;-59
2021/04/09 00:07:38;;;;;;;36.78;28.92;;;21.20;48.50;;;;;;339852;29;1082;-59
2021/04/09 00:07:50;;;;;;;37.33;28.85;;;21.20;48.60;;;;;;341187;29;1133;-57
2021/04/09 00:08:02;;;;;;;35.92;27.77;;;21.30;48.50;;;;;;338611;29;746;-57
2021/04/09 00:08:13;;;;;;;36.97;28.10;;;21.20;48.60;;;;;;338568;29;702;-56
2021/04/09 00:08:24;;;;;;;38.78;29.70;;;21.30;48.60;;;;;;337382;29;1242;-57
2021/04/09 00:08:35;;;;;;;40.45;31.17;;;21.20;48.60;;;;;;337383;29;831;-57
2021/04/09 00:08:47;;;;;;;39.70;30.27;;;21.30;48.80;;;;;;338563;29;1213;-57
2021/04/09 00:08:58;;;;;;;37.80;29.05;;;21.20;48.70;;;;;;337278;29;1576;-57
2021/04/09 00:09:11;;;;;;;35.63;27.85;;;21.30;48.70;;;;;;337275;29;737;-57
2021/04/09 00:09:22;;;;;;;36.90;28.63;;;21.20;48.80;;;;;;336981;29;1201;-59
2021/04/09 00:09:35;;;;;;;36.83;28.98;;;21.30;48.90;;;;;;335828;29;2184;-57
2021/04/09 00:09:46;;;;;;;37.83;29.58;;;21.20;48.70;;;;;;309356;29;13458;-61
2021/04/09 00:09:57;;;;;;;38.65;29.67;;;21.30;48.60;;;;;;311049;29;2262;-62
2021/04/09 00:10:10;;;;;;;37.55;29.02;;;21.30;48.60;;;;;;310821;29;2853;-61
2021/04/09 00:10:26;;;;;;;37.70;28.88;;;21.20;48.60;;;;;;313083;29;4765;-62
2021/04/09 00:10:39;;;;;;;37.53;28.92;;;21.30;48.50;;;;;;323658;29;2215;-61
2021/04/09 00:10:50;;;;;;;36.83;28.42;;;21.20;48.60;;;;;;324296;29;2286;-61
2021/04/09 00:11:01;;;;;;;37.10;28.40;;;21.20;48.60;;;;;;322740;29;2380;-62
2021/04/09 00:11:13;;;;;;;36.47;28.27;;;21.20;48.70;;;;;;322735;29;2239;-62
2021/04/09 00:11:24;;;;;;;38.10;29.20;;;21.20;48.60;;;;;;322962;29;2292;-61
2021/04/09 00:11:37;;;;;;;37.72;29.00;;;21.20;48.50;;;;;;328006;29;2329;-59
2021/04/09 00:11:48;;;;;;;37.72;29.02;;;21.20;48.50;;;;;;338926;29;2537;-59
2021/04/09 00:12:00;;;;;;;36.72;28.45;;;21.20;48.50;;;;;;335075;29;2554;-58
2021/04/09 00:12:11;;;;;;;37.28;28.70;;;21.30;48.50;;;;;;337697;29;2471;-58
2021/04/09 00:12:23;;;;;;;36.92;28.67;;;21.30;48.50;;;;;;337221;29;1451;-57
2021/04/09 00:12:36;;;;;;;36.78;28.92;;;21.20;48.50;;;;;;337192;29;1668;-56
2021/04/09 00:12:47;;;;;;;37.08;28.75;;;21.20;48.60;;;;;;337041;29;1685;-58
2021/04/09 00:12:59;;;;;;;38.95;28.95;;;21.20;48.50;;;;;;337127;29;1862;-57
2021/04/09 00:13:11;;;;;;;38.65;28.60;;;21.30;48.40;;;;;;337331;29;686;-57
2021/04/09 00:13:22;;;;;;;37.20;28.73;;;21.20;48.40;;;;;;337387;29;1014;-57
2021/04/09 00:13:33;;;;;;;35.70;28.15;;;21.20;48.60;;;;;;338555;29;706;-57
2021/04/09 00:13:45;;;;;;;35.45;27.80;;;21.20;48.70;;;;;;338479;29;1385;-57
2021/04/09 00:13:56;;;;;;;36.25;27.27;;;21.20;48.70;;;;;;330564;29;2647;-61
2021/04/09 00:14:10;;;;;;;36.78;27.38;;;21.20;48.60;;;;;;316170;29;2380;-61
2021/04/09 00:14:22;;;;;;;37.20;28.38;;;21.20;48.60;;;;;;323330;29;3350;-62
2021/04/09 00:14:34;;;;;;;36.15;28.17;;;21.30;48.50;;;;;;323002;29;3089;-61
2021/04/09 00:14:46;;;;;;;36.28;28.30;;;21.20;48.50;;;;;;323309;29;3779;-62
2021/04/09 00:14:57;;;;;;;35.40;27.30;;;21.20;48.50;;;;;;324291;29;2643;-62
2021/04/09 00:15:11;;;;;;;35.78;27.23;;;21.20;48.50;;;;;;322324;29;2266;-61
2021/04/09 00:15:23;;;;;;;37.22;28.40;;;21.30;48.50;;;;;;321016;29;2217;-59
2021/04/09 00:15:34;;;;;;;37.58;29.02;;;21.20;48.40;;;;;;320124;29;6101;-61
2021/04/09 00:15:46;;;;;;;37.00;28.70;;;21.20;48.50;;;;;;321257;29;2299;-61
2021/04/09 00:15:57;;;;;;;36.83;28.42;;;21.20;48.50;;;;;;320785;29;3428;-62
2021/04/09 00:16:08;;;;;;;36.38;27.00;;;21.20;48.50;;;;;;321434;29;4133;-61
2021/04/09 00:16:20;;;;;;;36.05;27.13;;;21.20;48.50;;;;;;323396;29;3144;-62
2021/04/09 00:16:31;;;;;;;34.00;26.58;;;21.20;48.40;;;;;;333006;29;2124;-58
2021/04/09 00:16:43;;;;;;;34.42;26.73;;;21.20;48.50;;;;;;338361;29;1277;-58
2021/04/09 00:16:54;;;;;;;34.40;26.05;;;21.20;48.50;;;;;;337331;29;1224;-57
2021/04/09 00:17:06;;;;;;;37.08;27.23;;;21.20;48.50;;;;;;338420;29;1259;-57
2021/04/09 00:17:19;;;;;;;37.25;27.75;;;21.20;48.50;;;;;;336631;29;1693;-57
2021/04/09 00:17:30;;;;;;;35.70;27.52;;;21.20;48.50;;;;;;338626;29;775;-57
2021/04/09 00:17:43;;;;;;;36.33;27.83;;;21.20;48.70;;;;;;338350;29;1538;-58
2021/04/09 00:17:54;;;;;;;37.05;28.30;;;21.20;48.70;;;;;;339845;29;1066;-56
2021/04/09 00:18:06;;;;;;;37.38;28.10;;;21.20;48.60;;;;;;339916;29;1136;-57
2021/04/09 00:18:17;;;;;;;38.30;27.77;;;21.20;48.70;;;;;;339870;29;1219;-57
2021/04/09 00:18:29;;;;;;;37.45;27.38;;;21.20;48.60;;;;;;338604;29;806;-57
2021/04/09 00:18:41;;;;;;;35.65;26.75;;;21.20;48.60;;;;;;338491;29;1546;-58
2021/04/09 00:18:52;;;;;;;34.55;26.35;;;21.20;48.50;;;;;;337350;29;1059;-57
2021/04/09 00:19:06;;;;;;;34.70;26.55;;;21.20;48.50;;;;;;336998;29;1226;-57
2021/04/09 00:19:22;;;;;;;35.03;27.42;;;21.20;48.60;;;;;;337111;29;1464;-57
2021/04/09 00:19:33;;;;;;;34.75;26.55;;;21.20;48.60;;;;;;338578;29;779;-57
2021/04/09 00:19:45;;;;;;;34.53;26.40;;;21.30;48.60;;;;;;338558;29;886;-56
2021/04/09 00:19:56;;;;;;;33.35;26.60;;;21.20;48.60;;;;;;337153;29;1526;-59
2021/04/09 00:20:12;;;;;;;33.65;26.67;;;21.20;48.60;;;;;;337035;29;1705;-57
2021/04/09 00:20:25;;;;;;;35.05;26.30;;;21.20;48.50;;;;;;337309;29;815;-57
2021/04/09 00:20:37;;;;;;;36.22;26.50;;;21.20;48.40;;;;;;337069;29;1668;-59
2021/04/09 00:20:48;;;;;;;36.42;27.20;;;21.20;48.50;;;;;;337020;29;1519;-57
2021/04/09 00:21:00;;;;;;;35.42;26.40;;;21.20;48.50;;;;;;337170;29;1194;-56
2021/04/09 00:21:11;;;;;;;34.30;26.20;;;21.20;48.40;;;;;;337036;29;1649;-57
2021/04/09 00:21:22;;;;;;;35.63;26.35;;;21.20;48.50;;;;;;334893;29;1888;-57
2021/04/09 00:21:34;;;;;;;35.70;25.95;;;21.20;48.40;;;;;;336039;29;817;-57
2021/04/09 00:21:46;;;;;;;35.53;25.55;;;21.20;48.40;;;;;;337334;29;798;-57
2021/04/09 00:21:58;;;;;;;34.40;26.38;;;21.20;48.50;;;;;;337971;29;2119;-57
2021/04/09 00:22:09;;;;;;;34.15;27.25;;;21.20;48.60;;;;;;337636;29;1884;-58
2021/04/09 00:22:21;;;;;;;33.15;26.58;;;21.20;48.50;;;;;;339804;29;1260;-58
2021/04/09 00:22:33;;;;;;;35.40;26.33;;;21.20;48.60;;;;;;338544;29;1556;-58
2021/04/09 00:22:45;;;;;;;35.55;26.10;;;21.20;48.50;;;;;;338649;29;1018;-57
2021/04/09 00:22:56;;;;;;;35.45;26.45;;;21.20;48.40;;;;;;338184;29;1577;-57
2021/04/09 00:23:08;;;;;;;34.70;26.50;;;21.20;48.50;;;;;;338466;29;1556;-57
2021/04/09 00:23:19;;;;;;;34.95;26.10;;;21.20;48.50;;;;;;338458;29;1275;-57
2021/04/09 00:23:31;;;;;;;34.75;25.45;;;21.20;48.40;;;;;;338329;29;1413;-58
2021/04/09 00:23:43;;;;;;;33.92;25.55;;;21.20;48.40;;;;;;338642;29;838;-57
2021/04/09 00:23:54;;;;;;;34.63;25.98;;;21.20;48.40;;;;;;338563;29;1379;-57
2021/04/09 00:24:06;;;;;;;34.08;26.00;;;21.20;48.40;;;;;;337553;29;1217;-56
2021/04/09 00:24:18;;;;;;;33.65;25.90;;;21.20;48.50;;;;;;338352;29;1570;-57
2021/04/09 00:24:29;;;;;;;34.65;25.35;;;21.20;48.50;;;;;;338563;29;1223;-58
2021/04/09 00:24:41;;;;;;;35.33;25.75;;;21.20;48.40;;;;;;337274;29;1151;-57
2021/04/09 00:24:52;;;;;;;34.63;25.58;;;21.20;48.40;;;;;;337352;29;632;-57
2021/04/09 00:25:06;;;;;;;36.35;27.63;;;21.20;48.50;;;;;;337728;29;1420;-57
2021/04/09 00:25:19;;;;;;;36.25;27.17;;;21.20;48.50;;;;;;336825;29;1812;-58
2021/04/09 00:25:30;;;;;;;33.95;25.98;;;21.20;48.50;;;;;;337244;29;1255;-58
2021/04/09 00:25:42;;;;;;;35.13;26.50;;;21.20;48.60;;;;;;338241;29;996;-57
2021/04/09 00:25:53;;;;;;;35.97;26.42;;;21.20;48.50;;;;;;337592;29;1170;-57
2021/04/09 00:26:05;;;;;;;35.63;25.95;;;21.20;48.40;;;;;;338518;29;767;-57
2021/04/09 00:26:16;;;;;;;34.13;25.73;;;21.20;48.50;;;;;;338454;29;1189;-58
2021/04/09 00:26:28;;;;;;;34.72;26.50;;;21.20;48.50;;;;;;339937;29;903;-57
2021/04/09 00:26:40;;;;;;;33.67;26.13;;;21.20;48.60;;;;;;338676;29;677;-57
2021/04/09 00:26:51;;;;;;;32.17;25.40;;;21.20;48.70;;;;;;339831;29;1214;-57
2021/04/09 00:27:03;;;;;;;30.67;24.15;;;21.20;48.60;;;;;;337884;29;1498;-57
2021/04/09 00:27:14;;;;;;;30.55;24.33;;;21.20;48.50;;;;;;336944;29;1629;-57
2021/04/09 00:27:25;;;;;;;30.77;24.48;;;21.20;48.60;;;;;;337336;29;658;-56
2021/04/09 00:27:37;;;;;;;32.00;24.45;;;21.20;48.50;;;;;;339118;29;1693;-57
2021/04/09 00:27:49;;;;;;;33.30;24.97;;;21.20;48.40;;;;;;338559;29;1412;-57
2021/04/09 00:28:01;;;;;;;34.38;24.83;;;21.20;48.50;;;;;;338533;29;882;-57
2021/04/09 00:28:12;;;;;;;33.42;25.27;;;21.20;48.50;;;;;;338596;29;665;-57
2021/04/09 00:28:24;;;;;;;32.50;25.52;;;21.20;48.40;;;;;;338563;29;1120;-58
2021/04/09 00:28:35;;;;;;;32.35;25.10;;;21.20;48.50;;;;;;336840;29;1775;-57
2021/04/09 00:28:47;;;;;;;32.40;25.40;;;21.20;48.50;;;;;;336894;29;1646;-57
2021/04/09 00:28:59;;;;;;;31.23;24.92;;;21.20;48.50;;;;;;338053;29;1920;-57
2021/04/09 00:29:10;;;;;;;30.08;23.77;;;21.20;48.50;;;;;;337172;29;769;-57
2021/04/09 00:29:22;;;;;;;30.60;23.30;;;21.20;48.50;;;;;;337388;29;1489;-57
2021/04/09 00:29:33;;;;;;;30.58;23.85;;;21.20;48.50;;;;;;337162;29;1954;-57
2021/04/09 00:29:45;;;;;;;30.63;24.63;;;21.20;48.50;;;;;;337475;29;1164;-57
2021/04/09 00:29:56;;;;;;;30.77;24.77;;;21.20;48.50;;;;;;338559;29;1103;-57
2021/04/09 00:30:09;;;;;;;32.63;25.13;;;21.20;48.40;;;;;;338519;29;1164;-58
2021/04/09 00:30:27;;;;;;;32.45;24.45;;;21.20;48.50;;;;;;336526;29;4758;-58
2021/04/09 00:30:38;;;;;;;33.17;24.63;;;21.20;48.70;;;;;;338489;29;1199;-58
2021/04/09 00:30:50;;;;;;;34.65;25.67;;;21.20;48.60;;;;;;338563;29;946;-59
2021/04/09 00:31:01;;;;;;;33.05;25.13;;;21.20;48.70;;;;;;339161;29;1384;-57
2021/04/09 00:31:13;;;;;;;33.97;25.88;;;21.20;48.80;;;;;;339748;29;721;-57
2021/04/09 00:31:24;;;;;;;33.28;25.73;;;21.20;48.80;;;;;;339911;29;716;-57
2021/04/09 00:31:36;;;;;;;32.63;25.83;;;21.20;48.60;;;;;;338576;29;1701;-57
2021/04/09 00:31:47;;;;;;;32.53;25.77;;;21.20;48.70;;;;;;341143;29;1815;-57
2021/04/09 00:31:58;;;;;;;32.85;25.48;;;21.20;48.80;;;;;;339759;29;1191;-58
2021/04/09 00:32:10;;;;;;;31.92;25.15;;;21.20;48.60;;;;;;338668;29;788;-57
2021/04/09 00:32:21;;;;;;;30.35;24.20;;;21.20;48.50;;;;;;338653;29;671;-57
2021/04/09 00:32:33;;;;;;;29.55;23.52;;;21.20;48.50;;;;;;339906;29;757;-57
2021/04/09 00:32:47;;;;;;;29.45;23.33;;;21.20;48.50;;;;;;338420;29;1604;-59
2021/04/09 00:32:58;;;;;;;28.95;23.17;;;21.20;48.50;;;;;;339804;29;1136;-58
2021/04/09 00:33:09;;;;;;;28.70;22.98;;;21.20;48.50;;;;;;338577;29;1444;-58
2021/04/09 00:33:21;;;;;;;30.70;23.92;;;21.20;48.50;;;;;;338538;29;850;-57
2021/04/09 00:33:32;;;;;;;31.35;24.02;;;21.20;48.50;;;;;;336073;29;654;-57
2021/04/09 00:33:44;;;;;;;32.97;24.98;;;21.20;48.50;;;;;;337162;29;1281;-57
2021/04/09 00:33:55;;;;;;;32.78;24.55;;;21.20;48.50;;;;;;337311;29;973;-57
2021/04/09 00:34:07;;;;;;;32.70;24.83;;;21.20;48.50;;;;;;337300;29;1181;-57
2021/04/09 00:34:18;;;;;;;32.15;24.73;;;21.20;48.50;;;;;;337164;29;908;-57
2021/04/09 00:34:31;;;;;;;31.75;25.05;;;21.20;48.50;;;;;;337231;29;1138;-57
2021/04/09 00:34:42;;;;;;;31.70;24.80;;;21.20;48.70;;;;;;337192;29;1022;-58
2021/04/09 00:34:54;;;;;;;31.90;24.85;;;21.20;48.50;;;;;;335906;29;1180;-58
2021/04/09 00:35:06;;;;;;;33.35;24.98;;;21.20;48.50;;;;;;339352;29;1249;-57
2021/04/09 00:35:17;;;;;;;33.05;24.50;;;21.20;48.50;;;;;;338429;29;1389;-57
2021/04/09 00:35:28;;;;;;;32.10;24.05;;;21.20;48.50;;;;;;338612;29;766;-57
2021/04/09 00:35:40;;;;;;;29.98;22.98;;;21.20;48.50;;;;;;338601;29;854;-58
2021/04/09 00:35:51;;;;;;;28.88;22.92;;;21.20;48.70;;;;;;338553;29;1098;-57
2021/04/09 00:36:03;;;;;;;30.08;23.88;;;21.20;48.70;;;;;;337166;29;1505;-59
2021/04/09 00:36:14;;;;;;;31.10;24.42;;;21.20;48.60;;;;;;338561;29;655;-57
2021/04/09 00:36:26;;;;;;;30.30;24.38;;;21.20;48.50;;;;;;339475;29;1663;-57
2021/04/09 00:36:38;;;;;;;29.60;23.50;;;21.20;48.60;;;;;;338436;29;1939;-57
2021/04/09 00:36:49;;;;;;;30.20;23.27;;;21.20;48.60;;;;;;337176;29;1182;-57
2021/04/09 00:37:01;;;;;;;30.67;22.70;;;21.20;48.50;;;;;;337254;29;1159;-57
2021/04/09 00:37:13;;;;;;;31.65;23.42;;;21.20;48.60;;;;;;338516;29;1081;-58
2021/04/09 00:37:24;;;;;;;31.83;24.23;;;21.20;48.70;;;;;;338508;29;1132;-57
2021/04/09 00:37:35;;;;;;;30.88;24.38;;;21.20;48.70;;;;;;339956;29;714;-56
2021/04/09 00:37:47;;;;;;;31.08;24.35;;;21.20;48.70;;;;;;339406;29;1539;-57
2021/04/09 00:37:59;;;;;;;31.13;24.13;;;21.20;48.60;;;;;;338548;29;1107;-58
2021/04/09 00:38:10;;;;;;;30.63;24.30;;;21.20;48.60;;;;;;338560;29;1136;-57
2021/04/09 00:38:22;;;;;;;30.92;24.33;;;21.20;48.50;;;;;;339856;29;1141;-60
2021/04/09 00:38:33;;;;;;;30.95;23.95;;;21.20;48.60;;;;;;337361;29;663;-56
2021/04/09 00:38:45;;;;;;;29.75;23.48;;;21.20;48.60;;;;;;337202;29;921;-57
2021/04/09 00:38:56;;;;;;;29.73;23.73;;;21.20;48.50;;;;;;337292;29;717;-56
2021/04/09 00:39:09;;;;;;;29.27;23.63;;;21.20;48.50;;;;;;338328;29;1568;-56
2021/04/09 00:39:20;;;;;;;29.27;23.20;;;21.20;48.50;;;;;;337916;28;5843;-58
2021/04/09 00:39:32;;;;;;;30.35;24.02;;;21.20;48.50;;;;;;339074;29;1602;-56
2021/04/09 00:39:43;;;;;;;30.23;23.17;;;21.20;48.50;;;;;;341131;28;2071;-56
2021/04/09 00:39:55;;;;;;;29.63;22.98;;;21.20;48.40;;;;;;338211;29;6529;-56
2021/04/09 00:40:07;;;;;;;29.05;22.48;;;21.20;48.40;;;;;;338424;29;1429;-56
2021/04/09 00:40:19;;;;;;;28.63;22.73;;;21.20;48.50;;;;;;337240;29;1215;-57
2021/04/09 00:40:30;;;;;;;28.60;22.83;;;21.20;48.50;;;;;;338563;29;1222;-56
2021/04/09 00:40:43;;;;;;;29.48;22.92;;;21.20;48.50;;;;;;338557;29;727;-57
2021/04/09 00:40:54;;;;;;;29.98;22.75;;;21.20;48.50;;;;;;338521;29;1446;-56
2021/04/09 00:41:06;;;;;;;30.33;22.85;;;21.20;48.40;;;;;;338455;29;1276;-58
2021/04/09 00:41:18;;;;;;;28.65;22.30;;;21.20;48.40;;;;;;337113;29;1313;-58
2021/04/09 00:41:30;;;;;;;28.35;22.38;;;21.20;48.40;;;;;;339869;29;775;-58
2021/04/09 00:41:41;;;;;;;28.30;23.17;;;21.20;48.70;;;;;;339762;29;1301;-58
2021/04/09 00:41:53;;;;;;;29.10;22.98;;;21.20;48.60;;;;;;339916;29;782;-57
2021/04/09 00:42:05;;;;;;;32.42;22.85;;;21.20;48.50;;;;;;338545;29;1069;-57
2021/04/09 00:42:19;;;;;;;33.60;22.20;;;21.20;48.70;;;;;;340293;29;1647;-58
2021/04/09 00:42:31;;;;;;;32.00;23.45;;;21.20;48.70;;;;;;337309;29;824;-58
2021/04/09 00:42:43;;;;;;;31.92;23.83;;;21.20;48.80;;;;;;337215;29;1268;-56
2021/04/09 00:42:54;;;;;;;29.30;23.15;;;21.20;48.80;;;;;;337980;29;1807;-58
2021/04/09 00:43:07;;;;;;;28.27;22.83;;;21.20;48.80;;;;;;337171;29;1501;-58
2021/04/09 00:43:19;;;;;;;30.45;23.55;;;21.20;48.70;;;;;;337120;29;1470;-56
2021/04/09 00:43:31;;;;;;;31.45;23.30;;;21.20;48.60;;;;;;337206;29;1334;-58
2021/04/09 00:43:47;;;;;;;30.50;22.60;;;21.20;48.50;;;;;;337308;29;832;-58
2021/04/09 00:43:58;;;;;;;29.20;22.15;;;21.20;48.50;;;;;;337264;29;798;-56
2021/04/09 00:44:11;;;;;;;27.95;21.52;;;21.20;48.50;;;;;;337364;29;1352;-56
2021/04/09 00:44:22;;;;;;;27.95;21.80;;;21.20;48.60;;;;;;338597;29;914;-56
2021/04/09 00:44:34;;;;;;;28.52;21.52;;;21.20;48.50;;;;;;338608;29;700;-57
2021/04/09 00:44:46;;;;;;;29.55;21.98;;;21.20;48.50;;;;;;338559;29;1086;-57
2021/04/09 00:44:58;;;;;;;28.83;21.95;;;21.20;48.60;;;;;;338520;29;1174;-56
2021/04/09 00:45:11;;;;;;;28.70;22.00;;;21.20;48.60;;;;;;339747;29;1181;-56
2021/04/09 00:45:22;;;;;;;29.05;21.90;;;21.20;48.50;;;;;;341206;29;1277;-56
2021/04/09 00:45:38;;;;;;;28.45;21.65;;;21.20;48.50;;;;;;341221;29;781;-56
2021/04/09 00:45:49;;;;;;;28.75;22.00;;;21.20;48.40;;;;;;341162;29;1124;-57
2021/04/09 00:46:01;;;;;;;28.92;22.90;;;21.20;48.50;;;;;;338537;29;1093;-58
2021/04/09 00:46:13;;;;;;;28.73;22.58;;;21.20;48.50;;;;;;337281;29;881;-58
2021/04/09 00:46:25;;;;;;;28.50;22.20;;;21.20;48.60;;;;;;337213;29;686;-56
2021/04/09 00:46:37;;;;;;;28.27;21.90;;;21.20;48.40;;;;;;337381;29;1404;-58
2021/04/09 00:46:48;;;;;;;28.70;22.25;;;21.20;48.50;;;;;;336373;29;1515;-58
2021/04/09 00:46:59;;;;;;;28.60;22.35;;;21.20;48.50;;;;;;338342;29;1201;-57
2021/04/09 00:47:11;;;;;;;27.60;22.02;;;21.20;48.40;;;;;;338431;29;2117;-57
2021/04/09 00:47:26;;;;;;;27.70;21.70;;;21.20;48.40;;;;;;338331;29;1788;-57
2021/04/09 00:47:37;;;;;;;28.40;21.60;;;21.20;48.40;;;;;;338622;29;1031;-57
2021/04/09 00:47:49;;;;;;;28.85;21.58;;;21.20;48.50;;;;;;338605;29;738;-57
2021/04/09 00:48:01;;;;;;;28.10;20.92;;;21.20;48.50;;;;;;338610;29;904;-57
2021/04/09 00:48:12;;;;;;;28.95;21.08;;;21.20;48.50;;;;;;338570;29;1317;-58
2021/04/09 00:48:24;;;;;;;29.67;21.20;;;21.20;48.50;;;;;;338461;29;1315;-58
2021/04/09 00:48:35;;;;;;;30.45;21.98;;;21.20;48.40;;;;;;339899;29;1074;-58
2021/04/09 00:48:46;;;;;;;29.70;22.30;;;21.20;48.40;;;;;;339820;29;1285;-57
2021/04/09 00:48:58;;;;;;;29.45;22.38;;;21.20;48.50;;;;;;337207;29;1184;-58
2021/04/09 00:49:10;;;;;;;28.80;21.98;;;21.20;48.60;;;;;;337226;29;1108;-57
2021/04/09 00:49:22;;;;;;;29.85;21.83;;;21.20;48.50;;;;;;335823;29;1343;-59
2021/04/09 00:49:33;;;;;;;29.25;21.25;;;21.20;48.40;;;;;;337287;29;1371;-58
2021/04/09 00:49:45;;;;;;;27.67;21.05;;;21.20;48.60;;;;;;337310;29;915;-58
2021/04/09 00:49:56;;;;;;;27.38;20.77;;;21.20;48.50;;;;;;338299;29;1434;-57
2021/04/09 00:50:09;;;;;;;27.08;20.83;;;21.20;48.40;;;;;;338389;29;1241;-57
2021/04/09 00:50:21;;;;;;;27.48;21.30;;;21.20;48.40;;;;;;338519;29;1974;-58
2021/04/09 00:50:34;;;;;;;28.35;22.60;;;21.20;48.50;;;;;;339928;29;741;-58
2021/04/09 00:50:46;;;;;;;29.70;23.33;;;21.20;48.40;;;;;;338484;29;964;-57
2021/04/09 00:50:57;;;;;;;29.23;22.52;;;21.20;48.30;;;;;;337241;29;1348;-57
2021/04/09 00:51:09;;;;;;;28.40;22.00;;;21.20;48.60;;;;;;338646;29;916;-57
2021/04/09 00:51:22;;;;;;;28.77;22.15;;;21.20;48.70;;;;;;339821;29;842;-57
2021/04/09 00:51:35;;;;;;;29.23;23.17;;;21.20;48.50;;;;;;339491;29;1890;-58
2021/04/09 00:51:46;;;;;;;29.48;23.08;;;21.20;48.50;;;;;;337244;29;730;-57
2021/04/09 00:51:58;;;;;;;29.35;22.35;;;21.20;48.50;;;;;;337043;29;1467;-57
2021/04/09 00:52:09;;;;;;;30.40;21.63;;;21.20;48.50;;;;;;338540;29;1280;-59
2021/04/09 00:52:22;;;;;;;29.33;21.67;;;21.20;48.50;;;;;;339710;29;1175;-58
2021/04/09 00:52:36;;;;;;;29.70;21.35;;;21.20;48.60;;;;;;338684;29;686;-58
2021/04/09 00:52:48;;;;;;;28.98;20.83;;;21.20;48.60;;;;;;338598;29;698;-58
2021/04/09 00:53:02;;;;;;;27.63;20.45;;;21.20;48.50;;;;;;338211;29;1767;-57
2021/04/09 00:53:15;;;;;;;27.55;21.20;;;21.20;48.50;;;;;;339381;29;1768;-57
2021/04/09 00:53:27;;;;;;;27.10;21.50;;;21.20;48.40;;;;;;338594;29;799;-57
2021/04/09 00:53:42;;;;;;;26.52;20.45;;;21.20;48.50;;;;;;338313;29;1604;-57
2021/04/09 00:53:54;;;;;;;27.17;20.38;;;21.20;48.50;;;;;;338508;29;1161;-58
2021/04/09 00:54:07;;;;;;;28.55;21.52;;;21.20;48.50;;;;;;338527;29;1154;-59
2021/04/09 00:54:18;;;;;;;29.42;21.88;;;21.20;48.50;;;;;;338578;29;754;-57
2021/04/09 00:54:30;;;;;;;28.67;22.05;;;21.20;48.60;;;;;;338633;29;881;-57
2021/04/09 00:54:42;;;;;;;29.55;22.27;;;21.20;48.70;;;;;;338453;29;998;-58
2021/04/09 00:54:54;;;;;;;27.92;21.60;;;21.20;48.90;;;;;;339604;29;1354;-58
2021/04/09 00:55:07;;;;;;;27.83;21.30;;;21.20;48.70;;;;;;338921;29;1236;-58
2021/04/09 00:55:19;;;;;;;28.90;21.08;;;21.20;48.80;;;;;;338944;29;1546;-59
2021/04/09 00:55:31;;;;;;;29.40;21.45;;;21.20;48.70;;;;;;339882;29;726;-57
2021/04/09 00:55:43;;;;;;;28.40;21.45;;;21.20;48.60;;;;;;339777;29;1087;-58
2021/04/09 00:55:56;;;;;;;28.60;21.83;;;21.20;48.50;;;;;;338329;29;1526;-58
2021/04/09 00:56:08;;;;;;;28.05;21.08;;;21.20;48.60;;;;;;339838;29;1237;-57
2021/04/09 00:56:24;;;;;;;28.55;21.20;;;21.20;48.50;;;;;;339914;29;684;-57
2021/04/09 00:56:36;;;;;;;28.67;21.63;;;21.20;48.40;;;;;;339777;29;1872;-58
2021/04/09 00:56:48;;;;;;;28.73;21.63;;;21.20;48.40;;;;;;339759;29;1183;-57
2021/04/09 00:57:02;;;;;;;29.73;22.48;;;21.20;48.60;;;;;;339746;29;1452;-57
2021/04/09 00:57:15;;;;;;;29.52;22.42;;;21.20;48.70;;;;;;339845;29;905;-57
2021/04/09 00:57:27;;;;;;;28.15;22.25;;;21.20;48.80;;;;;;339887;29;746;-58
2021/04/09 00:57:42;;;;;;;28.17;22.10;;;21.20;48.80;;;;;;339848;29;1457;-57
2021/04/09 00:57:55;;;;;;;28.40;22.05;;;21.20;48.80;;;;;;339874;29;746;-57
2021/04/09 00:58:07;;;;;;;28.02;20.73;;;21.20;48.80;;;;;;339921;29;1755;-57
2021/04/09 00:58:18;;;;;;;28.02;20.88;;;21.20;48.80;;;;;;340063;29;1688;-57
2021/04/09 00:58:30;;;;;;;27.83;21.33;;;21.20;48.80;;;;;;342500;28;1370;-58
2021/04/09 00:58:42;;;;;;;27.02;21.35;;;21.20;48.80;;;;;;340323;29;1453;-58
2021/04/09 00:58:56;;;;;;;27.42;21.63;;;21.20;48.80;;;;;;339827;29;1096;-57
2021/04/09 00:59:08;;;;;;;28.13;21.77;;;21.20;48.80;;;;;;339830;29;1574;-57
2021/04/09 00:59:20;;;;;;;28.63;21.60;;;21.20;48.80;;;;;;339765;29;1183;-58
2021/04/09 00:59:33;;;;;;;27.92;21.20;;;21.20;48.80;;;;;;339031;29;714;-57
2021/04/09 00:59:44;;;;;;;27.42;20.80;;;21.20;48.70;;;;;;336168;29;1679;-61
2021/04/09 00:59:56;;;;;;;27.00;20.30;;;21.20;48.70;;;;;;336615;29;1164;-60
2021/04/09 01:00:11;;;;;;;25.42;20.15;;;21.30;48.70;;;;;;336566;29;2046;-59
2021/04/09 01:00:23;;;;;;;23.67;19.88;;;21.20;48.70;;;;;;336270;29;1902;-60
2021/04/09 01:00:34;;;;;;;24.23;19.70;;;21.30;48.60;;;;;;335487;29;1089;-62
2021/04/09 01:00:46;;;;;;;25.77;19.98;;;21.30;48.70;;;;;;335651;29;1202;-60
2021/04/09 01:00:57;;;;;;;27.10;20.13;;;21.30;48.70;;;;;;335377;29;1066;-60
2021/04/09 01:01:09;;;;;;;27.75;20.40;;;21.30;48.80;;;;;;333893;29;1167;-59
2021/04/09 01:01:20;;;;;;;26.52;20.35;;;21.30;48.70;;;;;;334221;29;1232;-58
2021/04/09 01:01:32;;;;;;;27.02;20.38;;;21.30;48.80;;;;;;335960;29;1239;-60
2021/04/09 01:01:44;;;;;;;26.73;20.65;;;21.30;48.80;;;;;;336393;29;1196;-62
2021/04/09 01:01:56;;;;;;;26.77;20.73;;;21.30;48.70;;;;;;336292;29;1139;-61
2021/04/09 01:02:07;;;;;;;24.77;19.65;;;21.30;48.60;;;;;;335571;29;1248;-58
2021/04/09 01:02:19;;;;;;;25.35;19.50;;;21.30;48.70;;;;;;339388;29;1064;-56
2021/04/09 01:02:31;;;;;;;24.95;19.80;;;21.30;48.70;;;;;;337224;29;796;-57
2021/04/09 01:02:43;;;;;;;25.77;20.25;;;21.30;48.70;;;;;;338371;29;1313;-57
2021/04/09 01:02:56;;;;;;;26.77;20.40;;;21.30;48.70;;;;;;337288;29;661;-58